Time;durP1;ratioP1;P1;durP2;ratioP2;P2;SDS_P1;SDS_P2;PMS_P1;PMS_P2;Temp;Humidity;BMP_temperature;BMP_pressure;BME280_temperature;BME280_humidity;BME280_pressure;Samples;Min_cycle;Max_cycle;Signal;HPM_P1;HPM_P2
2023/12/02 00:03:57;;;;;;;28.98;20.88;;;;;;;-4.78;100.00;97488.56;15285726;19;20332;-50
2023/12/02 00:09:24;;;;;;;28.35;20.52;;;;;;;-4.79;100.00;97500.00;15289182;19;20014;-50
2023/12/02 00:14:49;;;;;;;31.95;21.42;;;;;;;-4.82;100.00;97501.00;15284008;19;20018;-51
2023/12/02 00:20:14;;;;;;;30.23;20.92;;;;;;;-4.82;100.00;97500.19;15287541;19;20011;-51
2023/12/02 00:25:42;;;;;;;31.48;21.10;;;;;;;-4.82;100.00;97505.44;15284197;19;20010;-51
2023/12/02 00:31:08;;;;;;;30.83;21.77;;;;;;;-4.84;100.00;97505.53;15281109;19;20018;-53
2023/12/02 00:36:33;;;;;;;30.92;22.60;;;;;;;-4.82;100.00;97500.19;15287519;19;20477;-50
2023/12/02 00:42:00;;;;;;;35.20;24.63;;;;;;;-4.81;100.00;97520.25;15284111;19;20463;-50
2023/12/02 00:47:32;;;;;;;32.22;23.48;;;;;;;-4.84;100.00;97508.16;15285589;19;20367;-50
2023/12/02 00:52:57;;;;;;;30.25;22.95;;;;;;;-4.85;100.00;97495.94;15287756;19;20014;-50
2023/12/02 00:58:24;;;;;;;27.02;19.90;;;;;;;-4.85;100.00;97500.34;15287842;19;20026;-52
2023/12/02 01:03:59;;;;;;;23.38;18.77;;;;;;;-4.88;100.00;97505.78;15030005;19;5001588;-53
2023/12/02 01:09:23;;;;;;;26.00;20.00;;;;;;;-4.91;100.00;97506.78;15297429;19;20082;-52
2023/12/02 01:14:50;;;;;;;21.42;17.42;;;;;;;-4.93;100.00;97518.34;15294372;19;20328;-50
2023/12/02 01:20:17;;;;;;;23.35;18.30;;;;;;;-4.95;100.00;97508.75;15298500;19;20014;-50
2023/12/02 01:25:42;;;;;;;21.58;18.27;;;;;;;-4.96;100.00;97493.09;15293674;19;20382;-52
2023/12/02 01:31:09;;;;;;;20.60;16.85;;;;;;;-4.98;100.00;97492.31;15298384;19;20025;-53
2023/12/02 01:36:34;;;;;;;19.48;16.35;;;;;;;-5.02;100.00;97482.91;15293008;19;20471;-51
2023/12/02 01:41:58;;;;;;;17.80;15.70;;;;;;;-5.03;100.00;97489.09;15294582;19;20477;-50
2023/12/02 01:47:32;;;;;;;17.83;15.30;;;;;;;-5.07;100.00;97479.72;15292811;19;20415;-52
2023/12/02 01:52:57;;;;;;;18.30;16.02;;;;;;;-5.11;100.00;97495.66;15295767;19;20021;-52
2023/12/02 01:58:22;;;;;;;16.00;14.32;;;;;;;-5.12;100.00;97507.09;15296746;19;20017;-50
2023/12/02 02:03:50;;;;;;;15.55;13.95;;;;;;;-5.17;100.00;97489.88;15294322;19;20025;-52
2023/12/02 02:09:15;;;;;;;14.35;12.68;;;;;;;-5.24;100.00;97502.50;15289783;19;20019;-54
2023/12/02 02:14:40;;;;;;;15.75;13.65;;;;;;;-5.24;100.00;97530.56;15290024;19;20023;-53
2023/12/02 02:20:08;;;;;;;16.85;14.75;;;;;;;-5.27;100.00;97526.31;15297435;19;20096;-50
2023/12/02 02:25:35;;;;;;;15.30;13.57;;;;;;;-5.28;100.00;97519.34;15290966;19;20018;-52
2023/12/02 02:31:01;;;;;;;17.33;14.23;;;;;;;-5.31;100.00;97527.44;15295460;19;20039;-53
2023/12/02 02:36:26;;;;;;;16.48;13.75;;;;;;;-5.31;100.00;97540.56;15295203;19;20018;-53
2023/12/02 02:41:54;;;;;;;16.50;14.10;;;;;;;-5.31;100.00;97541.38;15285399;19;20014;-50
2023/12/02 02:47:25;;;;;;;15.55;13.30;;;;;;;-5.29;100.00;97550.03;15289255;19;20014;-53
2023/12/02 02:52:57;;;;;;;13.60;11.18;;;;;;;-5.29;100.00;97539.53;15290083;19;20024;-50
2023/12/02 02:58:24;;;;;;;13.00;10.38;;;;;;;-5.28;100.00;97525.47;15291531;19;20375;-53
2023/12/02 03:03:49;;;;;;;12.27;10.27;;;;;;;-5.26;100.00;97522.75;15289245;19;20019;-50
2023/12/02 03:09:14;;;;;;;11.32;9.85;;;;;;;-5.24;100.00;97491.19;15291416;19;20354;-51
2023/12/02 03:14:41;;;;;;;11.85;9.55;;;;;;;-5.30;100.00;97487.94;15285209;19;20410;-50
2023/12/02 03:20:12;;;;;;;11.73;9.00;;;;;;;-5.29;100.00;97487.03;15291488;19;20014;-50
2023/12/02 03:25:36;;;;;;;11.07;8.38;;;;;;;-5.31;100.00;97475.75;15284913;19;20029;-51
2023/12/02 03:31:04;;;;;;;9.40;7.93;;;;;;;-5.34;100.00;97473.28;15290811;19;20014;-52
2023/12/02 03:36:28;;;;;;;8.65;7.03;;;;;;;-5.38;100.00;97477.03;15287724;19;20077;-52
2023/12/02 03:41:53;;;;;;;10.38;8.48;;;;;;;-5.37;100.00;97489.22;15286595;19;20031;-51
2023/12/02 03:47:28;;;;;;;10.85;8.43;;;;;;;-5.38;100.00;97498.03;15281097;19;20025;-50
2023/12/02 03:52:53;;;;;;;12.07;9.30;;;;;;;-5.37;100.00;97504.13;15287563;19;20014;-52
2023/12/02 03:58:20;;;;;;;12.88;9.88;;;;;;;-5.36;100.00;97501.44;15290072;19;20017;-50
2023/12/02 04:03:47;;;;;;;11.50;8.85;;;;;;;-5.35;100.00;97502.25;15286411;19;20010;-50
2023/12/02 04:09:12;;;;;;;13.20;10.05;;;;;;;-5.37;100.00;97499.72;15288865;19;20030;-51
2023/12/02 04:14:37;;;;;;;13.75;10.45;;;;;;;-5.35;100.00;97497.84;15284524;19;20025;-50
2023/12/02 04:20:08;;;;;;;13.52;10.25;;;;;;;-5.36;100.00;97504.06;15283222;19;20025;-49
2023/12/02 04:25:33;;;;;;;12.13;9.45;;;;;;;-5.33;100.00;97518.78;15283368;19;20024;-49
2023/12/02 04:30:57;;;;;;;13.45;10.85;;;;;;;-5.32;100.00;97513.44;15286926;19;20351;-52
2023/12/02 04:36:24;;;;;;;11.98;9.48;;;;;;;-5.28;100.00;97524.59;15299626;19;20400;-50
2023/12/02 04:41:49;;;;;;;12.02;9.32;;;;;;;-5.24;100.00;97533.19;15298239;19;20050;-53
2023/12/02 04:47:20;;;;;;;12.32;9.70;;;;;;;-5.27;100.00;97542.91;15295517;19;20040;-53
2023/12/02 04:52:48;;;;;;;12.95;9.73;;;;;;;-5.27;100.00;97542.06;15298591;19;20020;-50
2023/12/02 04:58:14;;;;;;;11.23;9.13;;;;;;;-5.30;100.00;97548.34;15300747;19;20021;-52
2023/12/02 05:03:40;;;;;;;12.43;9.77;;;;;;;-5.28;100.00;97554.34;15295496;19;20506;-54
2023/12/02 05:09:09;;;;;;;13.85;10.00;;;;;;;-5.24;100.00;97556.81;15299763;19;20485;-50
2023/12/02 05:14:35;;;;;;;9.02;7.72;;;;;;;-5.24;100.00;97557.66;15295279;19;20471;-50
2023/12/02 05:19:59;;;;;;;9.52;7.78;;;;;;;-5.24;100.00;97562.91;15295681;19;20086;-51
2023/12/02 05:25:26;;;;;;;9.30;7.60;;;;;;;-5.23;100.00;97548.84;15292401;19;20035;-53
2023/12/02 05:30:51;;;;;;;8.85;6.97;;;;;;;-5.24;100.00;97562.06;15298082;19;20082;-50
2023/12/02 05:36:16;;;;;;;9.65;7.28;;;;;;;-5.23;100.00;97563.78;15292202;19;20074;-53
2023/12/02 05:41:43;;;;;;;8.30;6.88;;;;;;;-5.26;100.00;97549.88;15296687;19;20025;-54
2023/12/02 05:47:09;;;;;;;9.23;6.85;;;;;;;-5.27;100.00;97548.16;15291594;19;20916;-52
2023/12/02 05:52:33;;;;;;;10.40;8.18;;;;;;;-5.29;100.00;97560.53;15289647;19;20018;-51
2023/12/02 05:58:00;;;;;;;11.38;8.82;;;;;;;-5.33;100.00;97558.16;15296656;19;20014;-52
2023/12/02 06:03:25;;;;;;;14.23;9.30;;;;;;;-5.38;100.00;97565.44;15292649;19;20023;-54
2023/12/02 06:08:50;;;;;;;11.82;9.18;;;;;;;-5.39;100.00;97561.97;15296485;19;20426;-52
2023/12/02 06:14:17;;;;;;;12.10;9.32;;;;;;;-5.41;100.00;97564.66;15291440;19;20031;-51
2023/12/02 06:19:42;;;;;;;12.50;10.52;;;;;;;-5.43;100.00;97574.41;15296859;19;20082;-51
2023/12/02 06:25:06;;;;;;;13.90;11.05;;;;;;;-5.44;100.00;97593.72;15284450;19;20027;-51
2023/12/02 06:30:34;;;;;;;14.80;10.82;;;;;;;-5.44;100.00;97604.22;15294440;19;20424;-52
2023/12/02 06:35:58;;;;;;;15.48;12.07;;;;;;;-5.48;100.00;97615.78;15290007;19;20032;-49
2023/12/02 06:41:23;;;;;;;17.00;12.18;;;;;;;-5.45;100.00;97634.00;15292556;19;20580;-51
2023/12/02 06:46:57;;;;;;;16.70;12.57;;;;;;;-5.41;100.00;97635.53;15290661;19;20010;-51
2023/12/02 06:52:22;;;;;;;18.80;13.45;;;;;;;-5.37;100.00;97636.25;15287735;19;20038;-53
2023/12/02 06:57:46;;;;;;;18.42;13.50;;;;;;;-5.26;100.00;97647.03;15278656;19;20014;-51
2023/12/02 07:03:13;;;;;;;15.18;12.23;;;;;;;-5.17;100.00;97653.53;15287405;19;20032;-52
2023/12/02 07:08:38;;;;;;;14.50;11.60;;;;;;;-5.19;100.00;97658.03;15285742;19;20493;-53
2023/12/02 07:14:03;;;;;;;15.80;12.45;;;;;;;-5.19;100.00;97665.06;15284191;19;20046;-52
2023/12/02 07:19:30;;;;;;;14.13;11.32;;;;;;;-5.18;100.00;97664.13;15284935;19;20015;-48
2023/12/02 07:24:55;;;;;;;15.15;11.50;;;;;;;-5.19;100.00;97676.44;15285231;19;20042;-54
2023/12/02 07:30:20;;;;;;;15.90;12.18;;;;;;;-5.16;100.00;97683.28;15285347;19;20378;-50
2023/12/02 07:35:49;;;;;;;14.68;12.02;;;;;;;-5.19;100.00;97683.44;15286286;19;20014;-50
2023/12/02 07:41:15;;;;;;;16.02;12.65;;;;;;;-5.22;100.00;97686.22;15291353;19;20015;-50
2023/12/02 07:46:46;;;;;;;14.30;11.15;;;;;;;-5.21;100.00;97693.16;15286515;19;20018;-50
2023/12/02 07:52:13;;;;;;;14.98;11.45;;;;;;;-5.21;100.00;97682.66;15289093;19;20007;-45
2023/12/02 07:57:39;;;;;;;15.65;12.43;;;;;;;-5.12;100.00;97682.19;15289549;19;20027;-46
2023/12/02 08:03:04;;;;;;;12.73;10.57;;;;;;;-5.06;100.00;97678.41;15280920;19;20030;-46
2023/12/02 08:08:31;;;;;;;13.80;10.73;;;;;;;-4.93;100.00;97683.84;15285584;19;20050;-48
2023/12/02 08:13:56;;;;;;;13.30;10.98;;;;;;;-4.80;100.00;97688.31;15281488;19;20022;-46
2023/12/02 08:19:20;;;;;;;12.25;9.88;;;;;;;-4.71;100.00;97692.25;15283245;19;20037;-45
2023/12/02 08:24:48;;;;;;;12.15;9.05;;;;;;;-4.61;100.00;97689.97;15284092;19;20037;-46
2023/12/02 08:30:15;;;;;;;9.75;8.60;;;;;;;-4.56;100.00;97708.09;15287748;19;20030;-45
2023/12/02 08:35:41;;;;;;;10.85;8.80;;;;;;;-4.68;100.00;97717.50;15277163;19;20074;-49
2023/12/02 08:41:08;;;;;;;10.15;9.07;;;;;;;-4.62;100.00;97722.44;15287132;19;20414;-46
2023/12/02 08:46:39;;;;;;;10.32;9.13;;;;;;;-4.51;100.00;97729.72;15279567;19;20074;-44
2023/12/02 08:52:04;;;;;;;13.20;10.07;;;;;;;-4.49;100.00;97727.84;15027890;19;5003102;-46
2023/12/02 08:57:32;;;;;;;12.00;10.00;;;;;;;-4.40;100.00;97742.28;15284689;19;20026;-47
2023/12/02 09:02:57;;;;;;;11.60;9.60;;;;;;;-4.34;100.00;97739.31;15281343;19;20022;-47
2023/12/02 09:08:21;;;;;;;11.32;9.35;;;;;;;-4.27;100.00;97745.06;15280450;19;20495;-46
2023/12/02 09:13:49;;;;;;;12.95;10.65;;;;;;;-4.18;100.00;97747.22;15280594;19;20015;-45
2023/12/02 09:19:40;;;;;;;13.63;11.35;;;;;;;-4.04;100.00;97756.94;15282697;19;20471;-45
2023/12/02 09:25:07;;;;;;;12.10;10.65;;;;;;;-3.96;100.00;97767.88;15292397;19;20035;-46
2023/12/02 09:30:34;;;;;;;12.90;11.02;;;;;;;-3.84;100.00;97770.75;15293600;19;20018;-45
2023/12/02 09:36:01;;;;;;;11.55;9.82;;;;;;;-3.73;100.00;97782.38;15286997;19;20014;-45
2023/12/02 09:41:41;;;;;;;11.27;9.15;;;;;;;-3.58;100.00;97779.78;15289075;19;21585;-45
2023/12/02 09:47:20;;;;;;;8.05;7.25;;;;;;;-3.47;100.00;97789.72;15288577;19;20039;-47
2023/12/02 09:53:13;;;;;;;9.60;7.95;;;;;;;-3.43;100.00;97771.00;15294922;19;20016;-47
2023/12/02 09:58:45;;;;;;;9.80;8.77;;;;;;;-3.42;100.00;97777.13;15297440;19;20335;-45
2023/12/02 10:04:24;;;;;;;11.18;9.20;;;;;;;-3.47;100.00;97764.22;15294945;19;20074;-45
2023/12/02 10:09:56;;;;;;;10.30;9.10;;;;;;;-3.36;100.00;97752.22;15033080;19;5001777;-47
2023/12/02 10:15:22;;;;;;;12.43;10.57;;;;;;;-3.22;100.00;97773.31;15284374;19;20542;-46
2023/12/02 10:20:50;;;;;;;11.63;9.57;;;;;;;-3.15;100.00;97769.38;15295921;19;20020;-46
2023/12/02 10:26:19;;;;;;;11.90;9.85;;;;;;;-3.30;100.00;97765.88;15288795;19;20487;-47
2023/12/02 10:31:45;;;;;;;18.58;15.52;;;;;;;-3.35;100.00;97761.81;15293073;19;20053;-46
2023/12/02 10:37:16;;;;;;;11.75;9.48;;;;;;;-3.27;100.00;97765.69;15295135;19;20014;-46
2023/12/02 10:42:53;;;;;;;12.88;9.93;;;;;;;-3.28;100.00;97763.16;15288973;19;20491;-47
2023/12/02 10:48:26;;;;;;;15.77;12.70;;;;;;;-3.22;100.00;97765.41;15283826;19;20011;-46
2023/12/02 10:54:00;;;;;;;22.00;18.10;;;;;;;-3.30;100.00;97752.72;15289051;19;20081;-46
2023/12/02 10:59:26;;;;;;;10.88;8.27;;;;;;;-3.33;100.00;97750.25;15290535;19;20015;-46
2023/12/02 11:05:02;;;;;;;10.48;8.70;;;;;;;-3.27;100.00;97744.59;15289495;19;20010;-47
2023/12/02 11:10:37;;;;;;;10.98;8.65;;;;;;;-3.28;100.00;97749.97;15290545;19;20045;-47
2023/12/02 11:16:21;;;;;;;12.23;9.10;;;;;;;-3.25;100.00;97757.69;15281417;19;20090;-46
2023/12/02 11:22:00;;;;;;;11.70;9.32;;;;;;;-3.29;100.00;97751.75;15289402;19;20464;-45
2023/12/02 11:27:43;;;;;;;10.93;8.85;;;;;;;-3.27;100.00;97751.66;15286861;19;20369;-46
2023/12/02 11:33:21;;;;;;;12.57;9.02;;;;;;;-3.31;100.00;97753.66;15287912;19;20093;-45
2023/12/02 11:38:58;;;;;;;12.27;10.30;;;;;;;-3.31;100.00;97755.41;15289939;19;20006;-47
2023/12/02 11:44:39;;;;;;;13.32;11.05;;;;;;;-3.36;100.00;97765.41;15285540;19;20023;-45
2023/12/02 11:50:29;;;;;;;17.15;12.45;;;;;;;-3.38;100.00;97762.81;15282600;19;20344;-46
2023/12/02 11:56:06;;;;;;;23.02;20.60;;;;;;;-3.31;100.00;97768.59;15282715;19;20010;-45
2023/12/02 12:02:03;;;;;;;14.00;10.70;;;;;;;-3.31;100.00;97787.88;15288708;19;20015;-46
2023/12/02 12:07:46;;;;;;;14.20;11.70;;;;;;;-3.31;100.00;97792.28;15284840;19;20455;-46
2023/12/02 12:13:14;;;;;;;13.50;10.43;;;;;;;-3.26;100.00;97816.59;15281619;19;20037;-48
2023/12/02 12:18:42;;;;;;;12.45;10.35;;;;;;;-3.18;100.00;97813.50;15285631;19;20017;-46
2023/12/02 12:24:07;;;;;;;12.48;10.65;;;;;;;-3.01;100.00;97817.78;15277486;19;20035;-47
2023/12/02 12:29:32;;;;;;;13.32;10.02;;;;;;;-3.06;100.00;97814.56;15287231;19;20019;-45
2023/12/02 12:35:00;;;;;;;11.90;9.32;;;;;;;-3.01;100.00;97823.06;15283596;19;20329;-46
2023/12/02 12:40:24;;;;;;;12.20;9.85;;;;;;;-2.95;100.00;97813.00;15285636;19;20023;-46
2023/12/02 12:45:52;;;;;;;14.05;10.77;;;;;;;-2.99;100.00;97821.16;15280128;19;20020;-46
2023/12/02 12:51:24;;;;;;;13.95;10.88;;;;;;;-3.06;100.00;97817.19;15285350;19;20010;-45
2023/12/02 12:56:57;;;;;;;13.77;10.93;;;;;;;-3.11;100.00;97823.56;15289651;19;20016;-50
2023/12/02 13:02:36;;;;;;;14.40;10.98;;;;;;;-3.23;100.00;97824.28;15299456;19;20013;-48
2023/12/02 13:08:09;;;;;;;14.23;11.48;;;;;;;-3.34;100.00;97826.69;15295782;19;20037;-46
2023/12/02 13:13:39;;;;;;;15.23;11.65;;;;;;;-3.40;100.00;97825.28;15295426;19;20032;-46
2023/12/02 13:19:12;;;;;;;14.98;11.63;;;;;;;-3.46;100.00;97844.06;15299079;19;20406;-47
2023/12/02 13:24:44;;;;;;;16.02;11.70;;;;;;;-3.57;100.00;97847.31;15292211;19;20025;-46
2023/12/02 13:30:10;;;;;;;16.75;12.20;;;;;;;-3.60;100.00;97863.31;15299142;19;20616;-48
2023/12/02 13:35:39;;;;;;;19.20;12.95;;;;;;;-3.60;100.00;97882.56;15291377;19;20007;-47
2023/12/02 13:41:16;;;;;;;17.58;12.75;;;;;;;-3.57;100.00;97897.34;15298171;19;20077;-47
2023/12/02 13:46:44;;;;;;;18.38;12.73;;;;;;;-3.65;100.00;97904.81;15293679;19;20007;-46
2023/12/02 13:52:32;;;;;;;16.90;13.13;;;;;;;-3.71;100.00;97913.91;15294759;19;20010;-46
2023/12/02 13:58:11;;;;;;;18.63;13.00;;;;;;;-3.69;100.00;97916.44;15291668;19;20037;-47
2023/12/02 14:04:01;;;;;;;17.67;13.27;;;;;;;-3.68;100.00;97926.03;15290452;19;20082;-46
2023/12/02 14:09:30;;;;;;;16.67;12.85;;;;;;;-3.74;100.00;97928.09;15290222;19;20463;-46
2023/12/02 14:15:31;;;;;;;17.30;12.88;;;;;;;-3.80;100.00;97941.56;15288978;19;20017;-46
2023/12/02 14:21:08;;;;;;;16.45;12.60;;;;;;;-3.77;100.00;97957.22;15293553;19;20031;-45
2023/12/02 14:26:53;;;;;;;18.25;12.45;;;;;;;-3.76;100.00;97960.66;15291526;19;20015;-45
2023/12/02 14:32:31;;;;;;;16.65;12.60;;;;;;;-3.77;100.00;97973.00;15287662;19;20032;-45
2023/12/02 14:38:25;;;;;;;15.65;11.95;;;;;;;-3.78;100.00;97981.81;15296069;19;20530;-47
2023/12/02 14:44:00;;;;;;;16.60;12.38;;;;;;;-3.76;100.00;98000.16;15290494;19;20043;-47
2023/12/02 14:49:32;;;;;;;16.38;12.20;;;;;;;-3.74;100.00;98009.69;15299435;19;20010;-47
2023/12/02 14:54:58;;;;;;;18.60;13.35;;;;;;;-3.74;100.00;98014.09;15289448;19;20021;-48
2023/12/02 15:00:25;;;;;;;19.80;13.02;;;;;;;-3.78;100.00;98016.03;15290099;19;20035;-45
2023/12/02 15:05:56;;;;;;;17.98;12.82;;;;;;;-3.81;100.00;98033.78;15281310;19;20018;-45
2023/12/02 15:11:24;;;;;;;17.65;12.77;;;;;;;-3.85;100.00;98042.75;15291597;19;20018;-46
2023/12/02 15:16:52;;;;;;;17.50;12.90;;;;;;;-3.89;100.00;98040.31;15289386;19;20077;-45
2023/12/02 15:22:23;;;;;;;13.32;10.48;;;;;;;-3.93;100.00;98045.78;15288782;19;20029;-47
2023/12/02 15:27:49;;;;;;;11.43;9.35;;;;;;;-4.00;100.00;98053.19;15285458;19;20411;-45
2023/12/02 15:33:18;;;;;;;9.43;7.95;;;;;;;-4.05;100.00;98053.38;15283312;19;20010;-45
2023/12/02 15:38:45;;;;;;;7.43;6.45;;;;;;;-4.06;100.00;98053.47;15285000;19;20014;-49
2023/12/02 15:44:11;;;;;;;6.65;5.90;;;;;;;-4.10;100.00;98065.94;15286314;19;20079;-47
2023/12/02 15:49:35;;;;;;;7.03;6.32;;;;;;;-4.11;100.00;98072.13;15278302;19;20022;-45
2023/12/02 15:55:03;;;;;;;7.68;6.25;;;;;;;-4.12;100.00;98082.75;15279444;19;20014;-46
2023/12/02 16:00:33;;;;;;;6.13;5.50;;;;;;;-4.15;100.00;98077.63;15286894;19;20094;-45
2023/12/02 16:05:59;;;;;;;6.10;5.50;;;;;;;-4.20;100.00;98088.38;15280596;19;20022;-45
2023/12/02 16:11:26;;;;;;;5.82;5.18;;;;;;;-4.24;100.00;98089.47;15286612;19;20018;-46
2023/12/02 16:16:57;;;;;;;5.88;4.97;;;;;;;-4.28;100.00;98098.41;15285818;19;20014;-46
2023/12/02 16:22:23;;;;;;;5.13;4.63;;;;;;;-4.31;100.00;98088.06;15286729;19;20032;-47
2023/12/02 16:27:55;;;;;;;5.28;4.78;;;;;;;-4.36;100.00;98097.03;15284600;19;20006;-46
2023/12/02 16:33:19;;;;;;;4.90;4.30;;;;;;;-4.46;100.00;98090.53;15293976;19;20090;-48
2023/12/02 16:38:44;;;;;;;4.40;3.65;;;;;;;-4.65;100.00;98095.81;15297804;19;20101;-45
2023/12/02 16:44:11;;;;;;;4.03;3.63;;;;;;;-4.84;100.00;98095.84;15296727;19;20085;-45
2023/12/02 16:49:36;;;;;;;5.45;4.47;;;;;;;-5.03;100.00;98102.00;15295309;19;20021;-45
2023/12/02 16:55:00;;;;;;;5.18;4.68;;;;;;;-5.20;100.00;98109.78;15276622;19;20073;-45
2023/12/02 17:00:37;;;;;;;5.78;5.20;;;;;;;-5.38;100.00;98116.72;15299720;19;20014;-46
2023/12/02 17:06:13;;;;;;;5.65;4.63;;;;;;;-5.54;100.00;98137.56;15292404;19;20023;-45
2023/12/02 17:11:39;;;;;;;5.75;5.15;;;;;;;-5.62;100.00;98153.63;15295147;19;20018;-45
2023/12/02 17:17:08;;;;;;;5.15;4.65;;;;;;;-5.58;100.00;98156.06;15290845;19;20021;-45
2023/12/02 17:22:33;;;;;;;6.82;5.43;;;;;;;-5.61;100.00;98158.84;15296929;19;20046;-46
2023/12/02 17:27:59;;;;;;;6.35;5.18;;;;;;;-5.64;100.00;98163.34;15296333;19;20082;-45
2023/12/02 17:33:27;;;;;;;6.45;4.90;;;;;;;-5.68;100.00;98173.13;15294513;19;20687;-45
2023/12/02 17:38:51;;;;;;;7.85;6.07;;;;;;;-5.68;100.00;98173.13;15295882;19;20077;-47
2023/12/02 17:44:16;;;;;;;5.95;5.05;;;;;;;-5.72;100.00;98176.81;15285352;19;20078;-45
2023/12/02 17:49:43;;;;;;;6.32;5.35;;;;;;;-5.73;100.00;98175.94;15294197;19;20456;-45
2023/12/02 17:55:10;;;;;;;5.95;5.25;;;;;;;-5.68;100.00;98178.38;15293474;19;20010;-48
2023/12/02 18:00:34;;;;;;;6.45;5.47;;;;;;;-5.59;100.00;98183.25;15296481;19;20019;-45
2023/12/02 18:06:04;;;;;;;6.45;5.72;;;;;;;-5.49;100.00;98182.84;15291878;19;20051;-45
2023/12/02 18:11:28;;;;;;;9.48;5.60;;;;;;;-5.43;100.00;98186.06;15292496;19;20014;-46
2023/12/02 18:16:54;;;;;;;8.02;6.70;;;;;;;-5.32;100.00;98190.81;15292100;19;20007;-45
2023/12/02 18:22:21;;;;;;;7.88;6.40;;;;;;;-5.21;100.00;98197.38;15295394;19;20041;-47
2023/12/02 18:27:47;;;;;;;7.97;6.57;;;;;;;-5.14;100.00;98204.91;15289946;19;20011;-45
2023/12/02 18:33:11;;;;;;;8.77;7.18;;;;;;;-5.08;100.00;98211.66;15293401;19;20351;-48
2023/12/02 18:38:40;;;;;;;6.90;6.20;;;;;;;-5.00;100.00;98211.31;15291124;19;20014;-46
2023/12/02 18:44:04;;;;;;;7.63;6.38;;;;;;;-4.95;100.00;98215.44;15288057;19;20458;-45
2023/12/02 18:49:35;;;;;;;7.30;6.47;;;;;;;-4.88;100.00;98225.69;15286129;19;20032;-45
2023/12/02 18:55:03;;;;;;;7.03;6.32;;;;;;;-4.79;100.00;98238.41;15287127;19;20021;-47
2023/12/02 19:06:47;;;;;;;10.07;7.97;;;;;;;-4.60;100.00;98251.56;15308317;19;20010;-89
2023/12/02 19:12:25;;;;;;;8.35;7.55;;;;;;;-4.53;100.00;98257.41;15304710;19;20080;-86
2023/12/02 19:17:50;;;;;;;10.88;9.55;;;;;;;-4.47;100.00;98267.63;15305651;19;20050;-87
2023/12/02 19:23:14;;;;;;;9.63;8.52;;;;;;;-4.43;100.00;98266.56;15302545;19;20054;-87
2023/12/02 19:28:43;;;;;;;10.75;8.77;;;;;;;-4.35;100.00;98271.47;15310085;19;20418;-88
2023/12/02 19:47:22;;;;;;;9.82;8.82;;;;;;;-4.20;100.00;98296.19;15305117;19;20018;-85
2023/12/02 19:52:58;;;;;;;11.75;9.60;;;;;;;-4.13;100.00;98313.41;15299180;19;20030;-88
2023/12/02 19:58:46;;;;;;;9.27;8.00;;;;;;;-4.06;100.00;98325.31;15317049;19;20014;-87
2023/12/02 20:10:38;;;;;;;10.18;8.65;;;;;;;-4.00;100.00;98337.38;15290677;19;20793;-45
2023/12/02 20:16:09;;;;;;;10.05;8.60;;;;;;;-3.97;100.00;98342.47;15300355;19;20019;-81
2023/12/02 20:21:34;;;;;;;10.23;9.13;;;;;;;-3.91;100.00;98343.97;15312314;19;20006;-80
2023/12/02 20:27:01;;;;;;;10.20;8.18;;;;;;;-3.85;100.00;98346.31;15304557;19;20023;-80
2023/12/02 20:32:26;;;;;;;9.75;7.97;;;;;;;-3.79;100.00;98353.06;15304593;19;20007;-81
2023/12/02 20:37:50;;;;;;;10.05;8.38;;;;;;;-3.75;100.00;98366.00;15305955;19;20457;-80
2023/12/02 20:43:19;;;;;;;10.68;8.65;;;;;;;-3.70;100.00;98368.41;15315954;19;20019;-81
2023/12/02 20:48:44;;;;;;;10.48;8.45;;;;;;;-3.66;100.00;98370.00;15328073;19;20031;-82
2023/12/02 20:54:02;;;;;;;10.50;9.06;;;;;;;-3.61;100.00;98372.41;14802413;19;10001386;-82
2023/12/02 20:59:31;;;;;;;11.10;9.57;;;;;;;-3.57;100.00;98374.81;15290707;19;20018;-82
2023/12/02 21:04:55;;;;;;;12.23;9.55;;;;;;;-3.54;100.00;98379.06;15295545;19;20079;-79
2023/12/02 21:10:20;;;;;;;11.77;10.25;;;;;;;-3.51;100.00;98381.56;15288869;19;20022;-78
2023/12/02 21:15:47;;;;;;;12.52;10.05;;;;;;;-3.47;100.00;98391.00;15294796;19;20018;-77
2023/12/02 21:21:12;;;;;;;12.13;10.32;;;;;;;-3.42;100.00;98394.28;15315412;19;20019;-78
2023/12/02 21:26:36;;;;;;;14.90;11.93;;;;;;;-3.37;100.00;98390.59;15310766;19;20017;-79
2023/12/02 21:32:04;;;;;;;15.65;12.65;;;;;;;-3.33;100.00;98398.25;15321942;19;20041;-78
2023/12/02 21:37:29;;;;;;;16.38;12.73;;;;;;;-3.30;100.00;98402.50;15317455;19;20018;-80
2023/12/02 21:42:55;;;;;;;16.65;12.50;;;;;;;-3.25;100.00;98411.06;15320877;19;20357;-79
2023/12/02 21:48:43;;;;;;;18.73;13.45;;;;;;;-3.22;100.00;98415.31;15313664;19;20018;-79
2023/12/02 21:54:16;;;;;;;18.02;13.70;;;;;;;-3.19;100.00;98421.28;15317493;19;20006;-79
2023/12/02 21:59:42;;;;;;;18.63;13.75;;;;;;;-3.17;100.00;98427.34;15310457;19;20046;-78
2023/12/02 22:05:12;;;;;;;15.77;12.85;;;;;;;-3.13;100.00;98439.44;15311343;19;20014;-80
2023/12/02 22:10:38;;;;;;;17.85;13.10;;;;;;;-3.12;100.00;98449.03;15317061;19;20122;-80
2023/12/02 22:16:09;;;;;;;17.65;13.75;;;;;;;-3.12;100.00;98451.66;15316760;19;20026;-79
2023/12/02 22:21:38;;;;;;;15.93;12.63;;;;;;;-3.11;100.00;98469.19;15311034;19;20017;-79
2023/12/02 22:27:02;;;;;;;18.15;12.73;;;;;;;-3.08;100.00;98472.59;15317138;19;20037;-79
2023/12/02 22:32:28;;;;;;;16.05;12.60;;;;;;;-3.08;100.00;98477.88;15326248;19;20018;-82
2023/12/02 22:37:55;;;;;;;18.17;13.02;;;;;;;-3.08;100.00;98484.03;15302696;19;20348;-80
2023/12/02 22:43:25;;;;;;;16.13;11.50;;;;;;;-3.10;100.00;98491.97;15305610;19;19999;-80
2023/12/02 22:48:52;;;;;;;15.77;10.77;;;;;;;-3.10;100.00;98494.63;15308985;19;20046;-80
2023/12/02 22:54:31;;;;;;;16.17;11.65;;;;;;;-3.09;100.00;98503.41;15308582;19;20043;-82
2023/12/02 22:59:55;;;;;;;12.70;9.52;;;;;;;-3.08;100.00;98509.50;15307402;19;20046;-82
2023/12/02 23:05:20;;;;;;;12.98;10.20;;;;;;;-3.08;100.00;98514.78;15306575;19;20017;-83
2023/12/02 23:10:49;;;;;;;13.68;10.35;;;;;;;-3.08;100.00;98517.41;15300949;19;20014;-82
2023/12/02 23:16:40;;;;;;;13.68;10.23;;;;;;;-3.08;100.00;98523.56;15303348;19;20066;-82
2023/12/02 23:22:04;;;;;;;12.85;10.05;;;;;;;-3.07;100.00;98527.03;15306421;19;20010;-82
2023/12/02 23:27:34;;;;;;;13.13;9.75;;;;;;;-3.05;100.00;98535.72;15297778;19;20077;-83
2023/12/02 23:33:07;;;;;;;10.88;8.77;;;;;;;-3.05;100.00;98533.94;15300684;19;20483;-83
2023/12/02 23:38:32;;;;;;;11.10;9.10;;;;;;;-3.04;100.00;98542.72;15290689;19;20794;-82
2023/12/02 23:44:01;;;;;;;10.93;8.95;;;;;;;-3.04;100.00;98547.97;15298290;19;20012;-81
2023/12/02 23:49:31;;;;;;;12.23;9.43;;;;;;;-3.06;100.00;98553.34;15311220;19;20011;-80
2023/12/02 23:55:22;;;;;;;11.95;9.13;;;;;;;-3.05;100.00;98549.75;15292579;19;20010;-80
